createdAt,value
2019-02-08T00:00:51.249Z,1001.79
2019-02-08T00:01:51.244Z,1001.86
2019-02-08T00:02:51.241Z,1001.81
2019-02-08T00:03:51.232Z,1001.79
2019-02-08T00:04:51.225Z,1001.80
2019-02-08T00:05:51.221Z,1001.79
2019-02-08T00:06:51.970Z,1001.89
2019-02-08T00:07:51.210Z,1001.85
2019-02-08T00:08:51.201Z,1001.81
2019-02-08T00:09:51.200Z,1001.84
2019-02-08T00:10:51.197Z,1001.86
2019-02-08T00:11:51.184Z,1001.85
2019-02-08T00:12:51.217Z,1001.88
2019-02-08T00:13:51.173Z,1001.87
2019-02-08T00:14:51.167Z,1001.90
2019-02-08T00:15:51.164Z,1001.88
2019-02-08T00:16:51.159Z,1001.86
2019-02-08T00:17:51.148Z,1001.86
2019-02-08T00:18:51.145Z,1001.88
2019-02-08T00:19:51.135Z,1001.90
2019-02-08T00:20:51.128Z,1001.85
2019-02-08T00:21:51.121Z,1001.87
2019-02-08T00:22:51.121Z,1001.82
2019-02-08T00:23:51.109Z,1001.86
2019-02-08T00:24:51.105Z,1001.85
2019-02-08T00:25:51.098Z,1001.89
2019-02-08T00:26:51.097Z,1001.83
2019-02-08T00:27:51.096Z,1001.82
2019-02-08T00:28:51.078Z,1001.83
2019-02-08T00:29:51.076Z,1001.81
2019-02-08T00:30:51.066Z,1001.84
2019-02-08T00:31:51.062Z,1001.80
2019-02-08T00:32:51.079Z,1001.80
2019-02-08T00:33:51.048Z,1001.79
2019-02-08T00:34:51.042Z,1001.79
2019-02-08T00:35:51.036Z,1001.78
2019-02-08T00:36:51.030Z,1001.78
2019-02-08T00:37:51.024Z,1001.77
2019-02-08T00:38:51.019Z,1001.85
2019-02-08T00:39:51.009Z,1001.89
2019-02-08T00:40:51.004Z,1001.85
2019-02-08T00:41:50.997Z,1001.89
2019-02-08T00:42:50.993Z,1001.91
2019-02-08T00:43:50.985Z,1001.89
2019-02-08T00:44:50.979Z,1001.87
2019-02-08T00:45:50.975Z,1001.89
2019-02-08T00:46:50.966Z,1001.97
2019-02-08T00:47:50.959Z,1001.90
2019-02-08T00:48:50.952Z,1001.87
2019-02-08T00:49:50.947Z,1001.86
2019-02-08T00:50:50.941Z,1001.85
2019-02-08T00:51:50.934Z,1001.89
2019-02-08T00:52:50.927Z,1001.88
2019-02-08T00:53:50.923Z,1001.85
2019-02-08T00:54:50.915Z,1001.91
2019-02-08T00:55:50.907Z,1001.94
2019-02-08T00:56:50.901Z,1001.89
2019-02-08T00:57:50.894Z,1001.91
2019-02-08T00:58:50.889Z,1001.90
2019-02-08T00:59:50.880Z,1001.94
2019-02-08T01:00:50.875Z,1001.96
2019-02-08T01:01:50.870Z,1001.95
2019-02-08T01:02:50.862Z,1001.91
2019-02-08T01:03:50.856Z,1001.93
2019-02-08T01:04:50.849Z,1001.89
2019-02-08T01:05:50.843Z,1001.89
2019-02-08T01:06:50.837Z,1001.92
2019-02-08T01:07:50.830Z,1001.91
2019-02-08T01:08:50.823Z,1001.94
2019-02-08T01:09:50.815Z,1001.93
2019-02-08T01:10:50.809Z,1001.93
2019-02-08T01:11:50.804Z,1001.97
2019-02-08T01:12:50.798Z,1001.93
2019-02-08T01:13:50.792Z,1001.95
2019-02-08T01:14:50.786Z,1001.96
2019-02-08T01:15:50.777Z,1001.89
2019-02-08T01:16:50.770Z,1001.89
2019-02-08T01:17:50.762Z,1001.88
2019-02-08T01:18:50.759Z,1001.91
2019-02-08T01:19:50.751Z,1001.87
2019-02-08T01:20:50.745Z,1001.90
2019-02-08T01:21:50.739Z,1001.97
2019-02-08T01:22:50.733Z,1001.98
2019-02-08T01:23:50.725Z,1001.95
2019-02-08T01:24:50.719Z,1001.95
2019-02-08T01:25:50.714Z,1001.95
2019-02-08T01:26:50.708Z,1001.97
2019-02-08T01:27:50.700Z,1001.93
2019-02-08T01:28:50.695Z,1002.03
2019-02-08T01:29:50.687Z,1002.00
2019-02-08T01:30:50.681Z,1001.93
2019-02-08T01:31:50.675Z,1002.02
2019-02-08T01:32:50.669Z,1001.95
2019-02-08T01:33:50.662Z,1001.97
2019-02-08T01:34:50.657Z,1001.92
2019-02-08T01:35:50.650Z,1001.97
2019-02-08T01:36:50.643Z,1001.96
2019-02-08T01:37:50.638Z,1001.96
2019-02-08T01:38:50.631Z,1001.94
2019-02-08T01:39:50.625Z,1001.96
2019-02-08T01:40:50.618Z,1001.94
2019-02-08T01:41:50.614Z,1001.95
2019-02-08T01:42:50.606Z,1002.00
2019-02-08T01:43:50.599Z,1001.94
2019-02-08T01:44:50.593Z,1001.93
2019-02-08T01:45:50.586Z,1001.97
2019-02-08T01:46:50.584Z,1001.93
2019-02-08T01:47:50.573Z,1001.99
2019-02-08T01:48:50.567Z,1001.96
2019-02-08T01:49:50.561Z,1002.01
2019-02-08T01:50:50.556Z,1001.98
2019-02-08T01:51:50.548Z,1001.99
2019-02-08T01:52:50.541Z,1001.97
2019-02-08T01:53:50.534Z,1001.97
2019-02-08T01:54:50.529Z,1001.98
2019-02-08T01:55:50.522Z,1001.95
2019-02-08T01:56:50.515Z,1001.99
2019-02-08T01:57:50.510Z,1001.97
2019-02-08T01:58:50.503Z,1001.96
2019-02-08T01:59:50.497Z,1002.01
2019-02-08T02:00:50.490Z,1002.01
2019-02-08T02:01:50.484Z,1002.03
2019-02-08T02:02:50.479Z,1001.99
2019-02-08T02:03:50.472Z,1002.02
2019-02-08T02:04:50.465Z,1001.96
2019-02-08T02:05:50.459Z,1002.02
2019-02-08T02:06:50.452Z,1001.99
2019-02-08T02:07:50.447Z,1002.04
2019-02-08T02:08:50.441Z,1002.01
2019-02-08T02:09:50.435Z,1002.06
2019-02-08T02:10:50.429Z,1002.02
2019-02-08T02:11:50.421Z,1002.02
2019-02-08T02:12:50.416Z,1002.05
2019-02-08T02:13:50.409Z,1002.03
2019-02-08T02:14:50.405Z,1002.03
2019-02-08T02:15:50.397Z,1002.04
2019-02-08T02:16:50.390Z,1002.02
2019-02-08T02:17:50.384Z,1002.01
2019-02-08T02:18:50.377Z,1002.07
2019-02-08T02:19:50.372Z,1002.03
2019-02-08T02:20:50.364Z,1002.01
2019-02-08T02:21:50.360Z,1002.05
2019-02-08T02:22:50.352Z,1002.01
2019-02-08T02:23:56.049Z,1002.02
2019-02-08T02:24:50.341Z,1002.05
2019-02-08T02:25:50.333Z,1002.02
2019-02-08T02:26:50.327Z,1002.05
2019-02-08T02:27:50.320Z,1002.08
2019-02-08T02:28:50.322Z,1002.04
2019-02-08T02:29:50.309Z,1002.11
2019-02-08T02:30:50.302Z,1002.14
2019-02-08T02:31:50.296Z,1002.13
2019-02-08T02:32:50.289Z,1002.15
2019-02-08T02:33:50.283Z,1002.12
2019-02-08T02:34:50.308Z,1002.12
2019-02-08T02:35:50.272Z,1002.16
2019-02-08T02:36:50.266Z,1002.12
2019-02-08T02:37:50.259Z,1002.14
2019-02-08T02:38:50.254Z,1002.18
2019-02-08T02:39:50.252Z,1002.13
2019-02-08T02:40:50.240Z,1002.16
2019-02-08T02:41:50.234Z,1002.14
2019-02-08T02:42:50.230Z,1002.14
2019-02-08T02:43:50.220Z,1002.15
2019-02-08T02:44:50.215Z,1002.20
2019-02-08T02:45:50.209Z,1002.20
2019-02-08T02:46:50.204Z,1002.13
2019-02-08T02:47:50.197Z,1002.09
2019-02-08T02:48:50.192Z,1002.09
2019-02-08T02:49:50.185Z,1002.13
2019-02-08T02:50:50.180Z,1002.18
2019-02-08T02:51:50.174Z,1002.16
2019-02-08T02:52:50.165Z,1002.15
2019-02-08T02:53:50.161Z,1002.12
2019-02-08T02:54:50.155Z,1002.08
2019-02-08T02:55:50.148Z,1002.15
2019-02-08T02:56:50.141Z,1002.10
2019-02-08T02:57:50.134Z,1002.15
2019-02-08T02:58:50.129Z,1002.12
2019-02-08T02:59:50.123Z,1002.09
2019-02-08T03:00:50.117Z,1002.04
2019-02-08T03:01:50.111Z,1002.08
2019-02-08T03:02:50.104Z,1002.05
2019-02-08T03:03:50.096Z,1002.11
2019-02-08T03:04:50.090Z,1002.14
2019-02-08T03:05:50.088Z,1002.12
2019-02-08T03:06:50.079Z,1002.10
2019-02-08T03:07:50.073Z,1002.13
2019-02-08T03:08:50.067Z,1002.12
2019-02-08T03:09:50.060Z,1002.15
2019-02-08T03:10:50.056Z,1002.06
2019-02-08T03:11:50.050Z,1002.05
2019-02-08T03:12:50.042Z,1002.08
2019-02-08T03:13:50.038Z,1002.10
2019-02-08T03:14:50.031Z,1002.07
2019-02-08T03:15:50.024Z,1002.08
2019-02-08T03:16:50.018Z,1002.07
2019-02-08T03:17:50.011Z,1002.08
2019-02-08T03:18:50.005Z,1002.04
2019-02-08T03:19:50.004Z,1002.04
2019-02-08T03:20:49.992Z,1002.03
2019-02-08T03:21:49.986Z,1001.98
2019-02-08T03:22:49.980Z,1001.99
2019-02-08T03:23:49.973Z,1002.02
2019-02-08T03:24:49.967Z,1001.94
2019-02-08T03:25:49.960Z,1002.00
2019-02-08T03:26:49.984Z,1001.98
2019-02-08T03:27:49.950Z,1001.97
2019-02-08T03:28:49.943Z,1001.94
2019-02-08T03:29:49.936Z,1001.93
2019-02-08T03:30:49.931Z,1001.85
2019-02-08T03:31:49.924Z,1001.89
2019-02-08T03:32:49.918Z,1001.88
2019-02-08T03:33:49.914Z,1001.86
2019-02-08T03:34:49.906Z,1001.86
2019-02-08T03:35:49.900Z,1001.88
2019-02-08T03:36:49.894Z,1001.92
2019-02-08T03:37:49.887Z,1001.87
2019-02-08T03:38:49.881Z,1001.88
2019-02-08T03:39:49.876Z,1001.84
2019-02-08T03:40:49.868Z,1001.82
2019-02-08T03:41:49.868Z,1001.82
2019-02-08T03:42:49.857Z,1001.80
2019-02-08T03:43:49.852Z,1001.86
2019-02-08T03:44:49.845Z,1001.80
2019-02-08T03:45:49.837Z,1001.79
2019-02-08T03:46:49.832Z,1001.83
2019-02-08T03:47:49.825Z,1001.78
2019-02-08T03:48:49.819Z,1001.78
2019-02-08T03:49:49.811Z,1001.85
2019-02-08T03:50:49.806Z,1001.84
2019-02-08T03:51:49.799Z,1001.81
2019-02-08T03:52:49.793Z,1001.82
2019-02-08T03:53:49.788Z,1001.85
2019-02-08T03:54:49.780Z,1001.84
2019-02-08T03:55:57.727Z,1001.84
2019-02-08T03:56:49.767Z,1001.78
2019-02-08T03:57:49.762Z,1001.77
2019-02-08T03:58:49.756Z,1001.77
2019-02-08T03:59:49.747Z,1001.79
2019-02-08T04:00:49.741Z,1001.82
2019-02-08T04:01:49.736Z,1001.81
2019-02-08T04:02:49.730Z,1001.81
2019-02-08T04:03:49.722Z,1001.81
2019-02-08T04:04:49.719Z,1001.84
2019-02-08T04:05:49.713Z,1001.82
2019-02-08T04:06:49.704Z,1001.78
2019-02-08T04:07:49.699Z,1001.76
2019-02-08T04:08:49.692Z,1001.81
2019-02-08T04:09:49.686Z,1001.77
2019-02-08T04:10:49.693Z,1001.79
2019-02-08T04:11:49.674Z,1001.76
2019-02-08T04:12:49.668Z,1001.79
2019-02-08T04:13:49.660Z,1001.77
2019-02-08T04:14:49.654Z,1001.73
2019-02-08T04:15:49.648Z,1001.76
2019-02-08T04:16:49.653Z,1001.78
2019-02-08T04:17:49.636Z,1001.79
2019-02-08T04:18:49.629Z,1001.80
2019-02-08T04:19:49.623Z,1001.85
2019-02-08T04:20:49.616Z,1001.84
2019-02-08T04:21:49.614Z,1001.85
2019-02-08T04:22:49.605Z,1001.88
2019-02-08T04:23:49.597Z,1001.86
2019-02-08T04:24:49.591Z,1001.83
2019-02-08T04:25:49.586Z,1001.81
2019-02-08T04:26:49.580Z,1001.80
2019-02-08T04:27:49.573Z,1001.78
2019-02-08T04:28:49.566Z,1001.74
2019-02-08T04:29:49.560Z,1001.80
2019-02-08T04:30:49.555Z,1001.76
2019-02-08T04:31:49.548Z,1001.72
2019-02-08T04:32:49.542Z,1001.65
2019-02-08T04:33:49.534Z,1001.74
2019-02-08T04:34:49.531Z,1001.65
2019-02-08T04:35:49.521Z,1001.68
2019-02-08T04:36:49.517Z,1001.66
2019-02-08T04:37:49.511Z,1001.64
2019-02-08T04:38:49.504Z,1001.68
2019-02-08T04:39:49.498Z,1001.69
2019-02-08T04:40:49.491Z,1001.66
2019-02-08T04:41:49.487Z,1001.68
2019-02-08T04:42:49.481Z,1001.66
2019-02-08T04:43:49.473Z,1001.64
2019-02-08T04:44:49.468Z,1001.63
2019-02-08T04:45:49.460Z,1001.59
2019-02-08T04:46:49.454Z,1001.65
2019-02-08T04:47:49.447Z,1001.65
2019-02-08T04:48:49.442Z,1001.66
2019-02-08T04:49:49.434Z,1001.67
2019-02-08T04:50:49.430Z,1001.69
2019-02-08T04:51:49.421Z,1001.66
2019-02-08T04:52:49.417Z,1001.65
2019-02-08T04:53:49.409Z,1001.63
2019-02-08T04:54:49.404Z,1001.68
2019-02-08T04:55:49.403Z,1001.65
2019-02-08T04:56:49.390Z,1001.64
2019-02-08T04:57:49.387Z,1001.65
2019-02-08T04:58:49.379Z,1001.62
2019-02-08T04:59:49.372Z,1001.67
2019-02-08T05:00:49.366Z,1001.63
2019-02-08T05:01:49.360Z,1001.62
2019-02-08T05:02:49.353Z,1001.63
2019-02-08T05:03:49.347Z,1001.59
2019-02-08T05:04:49.341Z,1001.64
2019-02-08T05:05:49.334Z,1001.62
2019-02-08T05:06:49.330Z,1001.57
2019-02-08T05:07:49.321Z,1001.55
2019-02-08T05:08:49.316Z,1001.59
2019-02-08T05:09:49.309Z,1001.52
2019-02-08T05:10:49.304Z,1001.52
2019-02-08T05:11:49.296Z,1001.52
2019-02-08T05:12:49.292Z,1001.51
2019-02-08T05:13:49.286Z,1001.54
2019-02-08T05:14:49.278Z,1001.53
2019-02-08T05:15:49.271Z,1001.53
2019-02-08T05:16:49.267Z,1001.55
2019-02-08T05:17:49.259Z,1001.52
2019-02-08T05:18:49.253Z,1001.49
2019-02-08T05:19:49.248Z,1001.50
2019-02-08T05:20:49.241Z,1001.49
2019-02-08T05:21:49.237Z,1001.46
2019-02-08T05:22:49.236Z,1001.39
2019-02-08T05:23:49.221Z,1001.46
2019-02-08T05:24:49.216Z,1001.47
2019-02-08T05:25:49.211Z,1001.48
2019-02-08T05:26:49.204Z,1001.46
2019-02-08T05:27:49.198Z,1001.42
2019-02-08T05:28:49.191Z,1001.45
2019-02-08T05:29:49.185Z,1001.45
2019-02-08T05:30:49.180Z,1001.43
2019-02-08T05:31:49.172Z,1001.43
2019-02-08T05:32:49.167Z,1001.44
2019-02-08T05:33:49.160Z,1001.46
2019-02-08T05:34:49.153Z,1001.40
2019-02-08T05:35:49.146Z,1001.44
2019-02-08T05:36:49.140Z,1001.38
2019-02-08T05:37:49.134Z,1001.38
2019-02-08T05:38:49.129Z,1001.39
2019-02-08T05:39:49.122Z,1001.40
2019-02-08T05:40:49.116Z,1001.37
2019-02-08T05:41:49.110Z,1001.34
2019-02-08T05:42:49.104Z,1001.38
2019-02-08T05:43:49.096Z,1001.36
2019-02-08T05:44:49.090Z,1001.35
2019-02-08T05:45:49.084Z,1001.33
2019-02-08T05:46:49.078Z,1001.35
2019-02-08T05:47:49.072Z,1001.35
2019-02-08T05:48:49.070Z,1001.32
2019-02-08T05:49:49.060Z,1001.31
2019-02-08T05:50:49.056Z,1001.32
2019-02-08T05:51:49.051Z,1001.29
2019-02-08T05:52:49.041Z,1001.26
2019-02-08T05:53:49.041Z,1001.29
2019-02-08T05:54:54.225Z,1001.33
2019-02-08T05:55:49.022Z,1001.33
2019-02-08T05:56:49.017Z,1001.30
2019-02-08T05:57:49.014Z,1001.27
2019-02-08T05:58:49.003Z,1001.32
2019-02-08T05:59:48.998Z,1001.33
2019-02-08T06:00:48.991Z,1001.31
2019-02-08T06:01:48.985Z,1001.26
2019-02-08T06:02:48.992Z,1001.23
2019-02-08T06:03:48.971Z,1001.22
2019-02-08T06:04:48.965Z,1001.23
2019-02-08T06:05:48.971Z,1001.14
2019-02-08T06:06:48.954Z,1001.09
2019-02-08T06:07:48.949Z,1001.10
2019-02-08T06:08:48.982Z,1001.05
2019-02-08T06:09:48.934Z,1001.09
2019-02-08T06:10:48.928Z,1001.08
2019-02-08T06:11:48.921Z,1001.06
2019-02-08T06:12:48.915Z,1001.09
2019-02-08T06:13:48.916Z,1001.08
2019-02-08T06:14:48.908Z,1001.10
2019-02-08T06:15:48.896Z,1001.13
2019-02-08T06:16:48.899Z,1001.06
2019-02-08T06:17:48.884Z,1001.14
2019-02-08T06:18:48.878Z,1001.16
2019-02-08T06:19:48.870Z,1001.15
2019-02-08T06:20:48.865Z,1001.11
2019-02-08T06:21:48.857Z,1001.11
2019-02-08T06:22:48.853Z,1001.12
2019-02-08T06:23:48.843Z,1001.12
2019-02-08T06:24:48.839Z,1001.17
2019-02-08T06:25:48.831Z,1001.16
2019-02-08T06:26:48.827Z,1001.17
2019-02-08T06:27:48.819Z,1001.15
2019-02-08T06:28:48.813Z,1001.16
2019-02-08T06:29:48.808Z,1001.21
2019-02-08T06:30:48.801Z,1001.22
2019-02-08T06:31:48.794Z,1001.21
2019-02-08T06:32:48.787Z,1001.25
2019-02-08T06:33:48.782Z,1001.25
2019-02-08T06:34:48.776Z,1001.24
2019-02-08T06:35:48.769Z,1001.29
2019-02-08T06:36:48.770Z,1001.24
2019-02-08T06:37:48.757Z,1001.27
2019-02-08T06:38:48.751Z,1001.30
2019-02-08T06:39:48.761Z,1001.28
2019-02-08T06:40:48.738Z,1001.30
2019-02-08T06:41:48.731Z,1001.31
2019-02-08T06:42:48.726Z,1001.28
2019-02-08T06:43:48.718Z,1001.30
2019-02-08T06:44:49.294Z,1001.34
2019-02-08T06:45:48.707Z,1001.36
2019-02-08T06:46:48.701Z,1001.31
2019-02-08T06:47:48.694Z,1001.34
2019-02-08T06:48:48.687Z,1001.36
2019-02-08T06:49:48.683Z,1001.27
2019-02-08T06:50:48.677Z,1001.27
2019-02-08T06:51:48.669Z,1001.30
2019-02-08T06:52:48.663Z,1001.26
2019-02-08T06:53:48.656Z,1001.29
2019-02-08T06:54:48.649Z,1001.27
2019-02-08T06:55:53.678Z,1001.27
2019-02-08T06:56:48.637Z,1001.27
2019-02-08T06:57:48.630Z,1001.28
2019-02-08T06:58:48.626Z,1001.29
2019-02-08T06:59:48.617Z,1001.31
2019-02-08T07:00:48.612Z,1001.36
2019-02-08T07:01:48.606Z,1001.37
2019-02-08T07:02:48.599Z,1001.26
2019-02-08T07:03:48.594Z,1001.27
2019-02-08T07:04:48.585Z,1001.32
2019-02-08T07:05:48.580Z,1001.32
2019-02-08T07:06:48.575Z,1001.25
2019-02-08T07:07:48.568Z,1001.31
2019-02-08T07:08:48.563Z,1001.32
2019-02-08T07:09:48.555Z,1001.32
2019-02-08T07:10:48.550Z,1001.30
2019-02-08T07:11:48.543Z,1001.33
2019-02-08T07:12:48.536Z,1001.30
2019-02-08T07:13:48.532Z,1001.33
2019-02-08T07:14:48.524Z,1001.33
2019-02-08T07:15:48.518Z,1001.31
2019-02-08T07:16:48.513Z,1001.25
2019-02-08T07:17:48.507Z,1001.32
2019-02-08T07:18:48.500Z,1001.25
2019-02-08T07:19:48.493Z,1001.32
2019-02-08T07:20:48.487Z,1001.26
2019-02-08T07:21:48.480Z,1001.26
2019-02-08T07:22:48.476Z,1001.29
2019-02-08T07:23:48.471Z,1001.25
2019-02-08T07:24:48.461Z,1001.23
2019-02-08T07:25:48.460Z,1001.22
2019-02-08T07:26:48.491Z,1001.21
2019-02-08T07:27:48.442Z,1001.20
2019-02-08T07:28:48.437Z,1001.20
2019-02-08T07:29:48.430Z,1001.24
2019-02-08T07:30:48.424Z,1001.25
2019-02-08T07:31:48.418Z,1001.29
2019-02-08T07:32:48.413Z,1001.24
2019-02-08T07:33:48.405Z,1001.22
2019-02-08T07:34:48.399Z,1001.28
2019-02-08T07:35:48.393Z,1001.28
2019-02-08T07:36:48.386Z,1001.28
2019-02-08T07:37:48.381Z,1001.24
2019-02-08T07:38:48.375Z,1001.23
2019-02-08T07:39:48.368Z,1001.27
2019-02-08T07:40:48.371Z,1001.26
2019-02-08T07:41:48.357Z,1001.26
2019-02-08T07:42:48.351Z,1001.29
2019-02-08T07:43:48.343Z,1001.28
2019-02-08T07:44:48.339Z,1001.23
2019-02-08T07:45:48.333Z,1001.24
2019-02-08T07:46:48.327Z,1001.23
2019-02-08T07:47:48.319Z,1001.18
2019-02-08T07:48:48.317Z,1001.17
2019-02-08T07:49:48.305Z,1001.12
2019-02-08T07:50:48.301Z,1001.18
2019-02-08T07:51:48.294Z,1001.17
2019-02-08T07:52:48.289Z,1001.17
2019-02-08T07:53:48.281Z,1001.22
2019-02-08T07:54:48.275Z,1001.18
2019-02-08T07:55:48.270Z,1001.17
2019-02-08T07:56:48.262Z,1001.19
2019-02-08T07:57:48.256Z,1001.15
2019-02-08T07:58:48.255Z,1001.11
2019-02-08T07:59:48.247Z,1001.11
2019-02-08T08:00:48.238Z,1001.12
2019-02-08T08:01:48.234Z,1001.15
2019-02-08T08:02:48.223Z,1001.18
2019-02-08T08:03:48.218Z,1001.12
2019-02-08T08:04:48.212Z,1001.15
2019-02-08T08:05:48.206Z,1001.14
2019-02-08T08:06:48.200Z,1001.10
2019-02-08T08:07:48.193Z,1001.15
2019-02-08T08:08:48.187Z,1001.19
2019-02-08T08:09:48.182Z,1001.17
2019-02-08T08:10:48.175Z,1001.13
2019-02-08T08:11:48.169Z,1001.17
2019-02-08T08:12:48.163Z,1001.12
2019-02-08T08:13:48.156Z,1001.16
2019-02-08T08:14:48.152Z,1001.15
2019-02-08T08:15:48.145Z,1001.12
2019-02-08T08:16:48.138Z,1001.19
2019-02-08T08:17:48.133Z,1001.19
2019-02-08T08:18:48.126Z,1001.15
2019-02-08T08:19:48.131Z,1001.18
2019-02-08T08:20:48.114Z,1001.17
2019-02-08T08:21:48.109Z,1001.15
2019-02-08T08:22:48.105Z,1001.16
2019-02-08T08:23:48.095Z,1001.13
2019-02-08T08:24:48.091Z,1001.14
2019-02-08T08:25:48.084Z,1001.19
2019-02-08T08:26:48.080Z,1001.22
2019-02-08T08:27:48.071Z,1001.19
2019-02-08T08:28:48.066Z,1001.24
2019-02-08T08:29:48.059Z,1001.21
2019-02-08T08:30:48.052Z,1001.17
2019-02-08T08:31:48.046Z,1001.21
2019-02-08T08:32:48.041Z,1001.21
2019-02-08T08:33:48.033Z,1001.19
2019-02-08T08:34:48.041Z,1001.19
2019-02-08T08:35:48.019Z,1001.17
2019-02-08T08:36:48.016Z,1001.14
2019-02-08T08:37:48.010Z,1001.18
2019-02-08T08:38:48.003Z,1001.15
2019-02-08T08:39:47.998Z,1001.12
2019-02-08T08:40:47.991Z,1001.11
2019-02-08T08:41:47.990Z,1001.11
2019-02-08T08:42:47.979Z,1001.18
2019-02-08T08:43:47.972Z,1001.14
2019-02-08T08:44:47.967Z,1001.14
2019-02-08T08:45:47.963Z,1001.14
2019-02-08T08:46:47.955Z,1001.20
2019-02-08T08:47:47.949Z,1001.08
2019-02-08T08:48:47.943Z,1001.08
2019-02-08T08:49:47.937Z,1001.10
2019-02-08T08:50:47.932Z,1001.05
2019-02-08T08:51:47.981Z,1001.05
2019-02-08T08:52:47.920Z,1001.06
2019-02-08T08:53:47.913Z,1001.05
2019-02-08T08:54:47.907Z,1001.11
2019-02-08T08:55:47.901Z,1001.11
2019-02-08T08:56:47.895Z,1001.13
2019-02-08T08:57:47.893Z,1001.05
2019-02-08T08:58:47.884Z,1001.04
2019-02-08T08:59:47.879Z,1001.06
2019-02-08T09:00:47.872Z,1001.00
2019-02-08T09:01:47.867Z,1001.01
2019-02-08T09:02:47.862Z,1001.15
2019-02-08T09:03:47.855Z,1001.01
2019-02-08T09:04:47.852Z,1001.06
2019-02-08T09:05:47.845Z,1001.01
2019-02-08T09:06:47.837Z,1001.00
2019-02-08T09:07:47.832Z,1001.00
2019-02-08T09:08:47.828Z,1000.99
2019-02-08T09:09:47.820Z,1000.99
2019-02-08T09:10:47.813Z,1000.98
2019-02-08T09:11:47.807Z,1000.91
2019-02-08T09:12:47.801Z,1000.90
2019-02-08T09:13:47.798Z,1000.91
2019-02-08T09:14:47.792Z,1000.91
2019-02-08T09:15:47.783Z,1000.86
2019-02-08T09:16:47.779Z,1000.84
2019-02-08T09:17:47.773Z,1000.87
2019-02-08T09:18:47.768Z,1000.88
2019-02-08T09:19:47.764Z,1000.86
2019-02-08T09:20:47.757Z,1000.82
2019-02-08T09:21:47.752Z,1000.85
2019-02-08T09:22:47.744Z,1000.76
2019-02-08T09:23:47.740Z,1000.80
2019-02-08T09:24:47.735Z,1000.81
2019-02-08T09:25:49.900Z,1000.73
2019-02-08T09:26:47.722Z,1000.79
2019-02-08T09:27:47.716Z,1000.79
2019-02-08T09:28:47.710Z,1000.75
2019-02-08T09:29:47.706Z,1000.83
2019-02-08T09:30:47.703Z,1000.76
2019-02-08T09:31:47.692Z,1000.74
2019-02-08T09:32:47.687Z,1000.78
2019-02-08T09:33:47.682Z,1000.77
2019-02-08T09:34:47.678Z,1000.79
2019-02-08T09:35:47.669Z,1000.76
2019-02-08T09:36:47.819Z,1000.80
2019-02-08T09:37:47.659Z,1000.76
2019-02-08T09:38:47.653Z,1000.80
2019-02-08T09:39:47.648Z,1000.80
2019-02-08T09:40:47.641Z,1000.82
2019-02-08T09:41:47.635Z,1000.80
2019-02-08T09:42:47.630Z,1000.77
2019-02-08T09:43:47.623Z,1000.77
2019-02-08T09:44:47.620Z,1000.80
2019-02-08T09:45:47.613Z,1000.78
2019-02-08T09:46:47.608Z,1000.77
2019-02-08T09:47:47.601Z,1000.79
2019-02-08T09:48:47.594Z,1000.79
2019-02-08T09:49:47.591Z,1000.79
2019-02-08T09:50:47.585Z,1000.66
2019-02-08T09:51:47.611Z,1000.85
2019-02-08T09:52:47.573Z,1000.76
2019-02-08T09:53:47.570Z,1000.76
2019-02-08T09:54:47.563Z,1000.75
2019-02-08T09:55:47.555Z,1000.78
2019-02-08T09:56:47.550Z,1000.78
2019-02-08T09:57:47.546Z,1000.77
2019-02-08T09:58:47.539Z,1000.72
2019-02-08T09:59:47.533Z,1000.69
2019-02-08T10:00:47.527Z,1000.75
2019-02-08T10:01:47.522Z,1000.71
2019-02-08T10:02:47.518Z,1000.74
2019-02-08T10:03:47.510Z,1000.75
2019-02-08T10:04:47.506Z,1000.65
2019-02-08T10:05:47.501Z,1000.73
2019-02-08T10:06:47.499Z,1000.72
2019-02-08T10:07:47.490Z,1000.67
2019-02-08T10:08:47.484Z,1000.71
2019-02-08T10:09:47.481Z,1000.68
2019-02-08T10:10:47.473Z,1000.59
2019-02-08T10:11:47.717Z,1000.65
2019-02-08T10:12:47.462Z,1000.67
2019-02-08T10:13:47.456Z,1000.61
2019-02-08T10:14:47.450Z,1000.63
2019-02-08T10:15:47.445Z,1000.51
2019-02-08T10:16:47.439Z,1000.54
2019-02-08T10:17:47.433Z,1000.52
2019-02-08T10:18:47.429Z,1000.47
2019-02-08T10:19:47.424Z,1000.53
2019-02-08T10:20:47.419Z,1000.53
2019-02-08T10:21:47.411Z,1000.51
2019-02-08T10:22:47.406Z,1000.59
2019-02-08T10:23:47.400Z,1000.55
2019-02-08T10:24:47.395Z,1000.48
2019-02-08T10:25:47.391Z,1000.53
2019-02-08T10:26:47.388Z,1000.53
2019-02-08T10:27:47.379Z,1000.50
2019-02-08T10:28:47.374Z,1000.54
2019-02-08T10:29:47.369Z,1000.51
2019-02-08T10:30:47.363Z,1000.50
2019-02-08T10:31:47.356Z,1000.55
2019-02-08T10:32:47.351Z,1000.52
2019-02-08T10:33:47.348Z,1000.59
2019-02-08T10:34:47.345Z,1000.50
2019-02-08T10:35:47.336Z,1000.49
2019-02-08T10:36:47.332Z,1000.48
2019-02-08T10:37:47.325Z,1000.52
2019-02-08T10:38:47.321Z,1000.56
2019-02-08T10:39:47.313Z,1000.52
2019-02-08T10:40:47.315Z,1000.45
2019-02-08T10:41:47.305Z,1000.54
2019-02-08T10:42:47.300Z,1000.48
2019-02-08T10:43:47.294Z,1000.53
2019-02-08T10:44:47.292Z,1000.51
2019-02-08T10:45:47.285Z,1000.49
2019-02-08T10:46:47.278Z,1000.50
2019-02-08T10:47:47.274Z,1000.45
2019-02-08T10:48:47.269Z,1000.47
2019-02-08T10:49:47.264Z,1000.46
2019-02-08T10:50:47.258Z,1000.44
2019-02-08T10:51:47.252Z,1000.32
2019-02-08T10:52:47.249Z,1000.39
2019-02-08T10:53:53.034Z,1000.38
2019-02-08T10:54:47.240Z,1000.34
2019-02-08T10:55:47.232Z,1000.33
2019-02-08T10:56:47.228Z,1000.31
2019-02-08T10:57:47.223Z,1000.36
2019-02-08T10:58:47.218Z,1000.37
2019-02-08T10:59:47.211Z,1000.37
2019-02-08T11:00:47.206Z,1000.31
2019-02-08T11:01:47.201Z,1000.32
2019-02-08T11:02:47.197Z,1000.35
2019-02-08T11:03:47.194Z,1000.31
2019-02-08T11:04:47.186Z,1000.38
2019-02-08T11:05:47.182Z,1000.28
2019-02-08T11:06:47.177Z,1000.25
2019-02-08T11:07:47.171Z,1000.20
2019-02-08T11:08:47.165Z,1000.16
2019-02-08T11:09:47.162Z,1000.21
2019-02-08T11:10:47.157Z,1000.19
2019-02-08T11:11:47.150Z,1000.13
2019-02-08T11:12:47.145Z,1000.14
2019-02-08T11:13:47.141Z,1000.12
2019-02-08T11:14:47.138Z,1000.13
2019-02-08T11:15:47.131Z,1000.10
2019-02-08T11:16:47.126Z,1000.12
2019-02-08T11:17:47.120Z,1000.06
2019-02-08T11:18:47.116Z,1000.08
2019-02-08T11:19:47.109Z,1000.04
2019-02-08T11:20:47.106Z,1000.04
2019-02-08T11:21:47.102Z,1000.01
2019-02-08T11:22:47.095Z,999.99
2019-02-08T11:23:47.090Z,999.98
2019-02-08T11:24:47.086Z,999.94
2019-02-08T11:25:47.081Z,999.95
2019-02-08T11:26:47.078Z,999.95
2019-02-08T11:27:47.070Z,999.90
2019-02-08T11:28:47.065Z,999.93
2019-02-08T11:29:47.061Z,999.93
2019-02-08T11:30:47.055Z,999.90
2019-02-08T11:31:47.054Z,999.84
2019-02-08T11:32:47.045Z,999.85
2019-02-08T11:33:47.039Z,999.85
2019-02-08T11:34:47.035Z,999.86
2019-02-08T11:35:47.031Z,999.77
2019-02-08T11:36:47.025Z,999.81
2019-02-08T11:37:47.021Z,999.77
2019-02-08T11:38:47.016Z,999.78
2019-02-08T11:39:47.010Z,999.69
2019-02-08T11:40:47.005Z,999.69
2019-02-08T11:41:47.000Z,999.78
2019-02-08T11:42:46.996Z,999.69
2019-02-08T11:43:46.991Z,999.68
2019-02-08T11:44:46.986Z,999.69
2019-02-08T11:45:46.982Z,999.75
2019-02-08T11:46:46.978Z,999.68
2019-02-08T11:47:46.971Z,999.71
2019-02-08T11:48:46.966Z,999.67
2019-02-08T11:49:46.960Z,999.67
2019-02-08T11:50:46.956Z,999.64
2019-02-08T11:51:46.952Z,999.68
2019-02-08T11:52:46.947Z,999.64
2019-02-08T11:53:46.941Z,999.62
2019-02-08T11:54:46.939Z,999.61
2019-02-08T11:55:46.933Z,999.59
2019-02-08T11:56:46.927Z,999.59
2019-02-08T11:57:46.922Z,999.62
2019-02-08T11:58:46.917Z,999.51
2019-02-08T11:59:46.911Z,999.58
2019-02-08T12:00:46.908Z,999.49
2019-02-08T12:01:46.905Z,999.59
2019-02-08T12:02:46.899Z,999.47
2019-02-08T12:03:46.893Z,999.51
2019-02-08T12:04:46.888Z,999.53
2019-02-08T12:05:46.883Z,999.47
2019-02-08T12:06:46.878Z,999.45
2019-02-08T12:07:46.873Z,999.42